Terminal Aerodrome Forecast
Issued by NWS Cleveland, OH

Home | Current Version | Previous Version | Text Only | Print | Product List | Glossary On
Versions: 1 2 3 4 5 6 7 8 9 10 11 12 13 14 15 16 17 18 19 20 21 22
000
FTUS41 KCLE 222300
TAFTOL
TAF
KTOL 222338Z 2300/2324 29004KT P6SM BKN035
     FM230100 29004KT P6SM SCT035
     FM230400 VRB03KT P6SM SKC
      TEMPO 2311/2314 4SM BR
     FM231500 27005KT P6SM SCT250=

USA.gov is the U.S. government's official web portal to all federal, state and local government web resources and services.